createdAt,value
2023-02-17T05:50:18.616Z,27.80
2023-02-17T05:52:49.132Z,26.80
2023-02-17T05:55:16.480Z,26.90
2023-02-17T05:57:43.226Z,20.50
2023-02-17T06:00:11.179Z,16.60
2023-02-17T06:02:41.032Z,15.40
2023-02-17T06:05:08.629Z,12.40
2023-02-17T06:07:35.546Z,16.30
2023-02-17T06:10:06.559Z,15.80
2023-02-17T06:12:34.283Z,16.80
2023-02-17T06:15:01.003Z,16.90
2023-02-17T06:20:00.381Z,18.10
2023-02-17T06:22:27.171Z,17.50
2023-02-17T06:24:54.037Z,19.40
2023-02-17T06:27:25.603Z,19.10
2023-02-17T06:32:21.674Z,18.90
2023-02-17T06:34:53.632Z,19.30
2023-02-17T06:41:42.350Z,22.70
2023-02-17T06:44:29.252Z,21.70
2023-02-17T06:47:28.124Z,22.40
2023-02-17T06:50:57.130Z,20.80
2023-02-17T06:53:36.353Z,21.80
2023-02-17T06:59:33.696Z,19.80
2023-02-17T07:02:11.769Z,19.60
2023-02-17T07:04:40.362Z,24.50
2023-02-17T07:07:13.578Z,30.30
2023-02-17T07:09:41.037Z,20.30
2023-02-17T07:12:08.843Z,21.40
2023-02-17T07:14:36.545Z,20.70
2023-02-17T07:17:34.987Z,19.00
2023-02-17T07:20:42.197Z,25.40
2023-02-17T07:23:29.326Z,20.20
2023-02-17T07:26:11.812Z,23.50
2023-02-17T07:29:09.721Z,20.60
2023-02-17T07:31:53.164Z,19.20
2023-02-17T07:34:19.962Z,21.20
2023-02-17T07:36:47.303Z,19.70
2023-02-17T07:39:14.092Z,20.70
2023-02-17T07:41:40.889Z,20.70
2023-02-17T07:44:10.817Z,20.90
2023-02-17T07:46:39.236Z,20.10
2023-02-17T07:49:06.140Z,17.60
2023-02-17T07:51:34.726Z,18.90
2023-02-17T07:54:04.196Z,17.00
2023-02-17T07:56:34.173Z,14.70
2023-02-17T07:59:02.941Z,15.50
2023-02-17T08:01:30.453Z,18.30
2023-02-17T08:04:03.704Z,16.70
2023-02-17T08:06:33.088Z,16.80
2023-02-17T08:09:20.577Z,16.00
2023-02-17T08:12:06.968Z,16.80
2023-02-17T08:14:36.158Z,17.40
2023-02-17T08:17:25.139Z,17.40
2023-02-17T08:20:41.889Z,18.60
2023-02-17T08:24:28.538Z,17.80
2023-02-17T08:28:00.551Z,18.30
2023-02-17T08:34:59.607Z,17.10
2023-02-17T08:37:37.271Z,16.40
2023-02-17T08:46:44.565Z,16.30
2023-02-17T08:49:45.326Z,18.10
2023-02-17T08:52:12.892Z,18.10
2023-02-17T08:54:40.955Z,19.70
2023-02-17T08:57:15.010Z,19.60
2023-02-17T09:00:05.592Z,19.00
2023-02-17T09:03:41.197Z,20.10
2023-02-17T09:07:00.517Z,19.50
2023-02-17T09:09:40.329Z,19.90
2023-02-17T09:13:19.049Z,21.70
2023-02-17T09:16:04.713Z,20.20
2023-02-17T09:18:37.749Z,15.90
2023-02-17T09:21:11.927Z,18.40
2023-02-17T09:23:41.744Z,17.50
2023-02-17T09:26:11.090Z,18.40
2023-02-17T09:28:40.295Z,17.70
2023-02-17T09:31:11.599Z,19.90
2023-02-17T09:33:40.293Z,19.00
2023-02-17T09:36:09.722Z,21.00
2023-02-17T09:38:39.373Z,20.80
2023-02-17T09:41:33.689Z,20.10
2023-02-17T09:44:02.162Z,20.90
2023-02-17T09:46:33.366Z,18.20
2023-02-17T09:49:40.184Z,17.20
2023-02-17T09:52:28.874Z,18.70
2023-02-17T09:55:49.735Z,19.20
2023-02-17T09:59:14.924Z,18.70
2023-02-17T10:01:53.512Z,19.60
2023-02-17T10:07:11.438Z,18.40
2023-02-17T10:10:30.924Z,20.40
2023-02-17T10:13:40.400Z,32.10
2023-02-17T10:16:17.693Z,21.70
2023-02-17T10:18:48.172Z,22.50
2023-02-17T10:21:21.546Z,22.10
2023-02-17T10:23:48.849Z,22.70
2023-02-17T10:26:21.972Z,21.30
2023-02-17T10:29:01.753Z,18.70
2023-02-17T10:31:47.331Z,19.40
2023-02-17T10:34:32.384Z,19.40
2023-02-17T10:37:01.005Z,19.60
2023-02-17T10:39:37.337Z,18.30
2023-02-17T10:42:04.325Z,17.90
2023-02-17T10:44:33.918Z,16.40
2023-02-17T10:47:01.135Z,17.10
2023-02-17T10:50:04.210Z,21.70
2023-02-17T10:53:40.204Z,18.80
2023-02-17T10:56:31.328Z,19.10
2023-02-17T11:03:33.494Z,18.10
2023-02-17T11:06:19.125Z,23.70
2023-02-17T11:09:04.971Z,26.30
2023-02-17T11:11:56.881Z,25.50
2023-02-17T11:14:26.681Z,25.90
2023-02-17T11:17:00.064Z,27.30
2023-02-17T11:19:36.960Z,25.60
2023-02-17T11:26:57.878Z,26.90
2023-02-17T11:29:29.132Z,28.90
2023-02-17T11:32:08.204Z,27.50
2023-02-17T11:34:36.981Z,28.50
2023-02-17T11:37:20.607Z,31.70
2023-02-17T11:39:48.890Z,28.20
2023-02-17T11:42:27.241Z,29.40
2023-02-17T11:44:56.580Z,28.60
2023-02-17T11:47:34.564Z,28.50
2023-02-17T11:50:46.038Z,28.60
2023-02-17T11:53:30.959Z,30.20
2023-02-17T11:56:07.686Z,30.60
2023-02-17T11:58:57.255Z,30.50
2023-02-17T12:01:38.892Z,31.40
2023-02-17T12:04:12.971Z,29.70
2023-02-17T12:06:45.587Z,31.90
2023-02-17T12:09:39.939Z,32.90
2023-02-17T12:12:15.167Z,28.60
2023-02-17T12:14:57.503Z,27.50
2023-02-17T12:17:35.255Z,27.20
2023-02-17T12:20:37.465Z,27.40
2023-02-17T12:23:18.951Z,27.60
2023-02-17T12:26:22.447Z,31.80
2023-02-17T12:28:57.804Z,31.80
2023-02-17T12:31:37.106Z,33.40
2023-02-17T12:34:22.342Z,33.20
2023-02-17T12:36:49.544Z,33.00
2023-02-17T12:39:22.016Z,33.10
2023-02-17T12:42:00.116Z,32.30
2023-02-17T12:44:34.571Z,32.50
2023-02-17T12:47:05.554Z,33.40
2023-02-17T12:49:38.074Z,33.20
2023-02-17T12:52:04.853Z,35.00
2023-02-17T12:54:35.880Z,37.00
2023-02-17T12:57:28.893Z,40.30
2023-02-17T12:59:55.554Z,34.10
2023-02-17T13:02:23.853Z,39.00
2023-02-17T13:04:53.153Z,35.90
2023-02-17T13:07:41.324Z,35.50
2023-02-17T13:10:21.473Z,34.40
2023-02-17T13:12:59.028Z,31.00
2023-02-17T13:15:30.349Z,36.00
2023-02-17T13:18:02.940Z,37.50
